If you wish to contribute or participate in the discussions about articles you are invited to join SKYbrary as a registered user

 Actions

Allen Army Airfield

From SKYbrary Wiki

PABI
Airport
ICAO: PABI – IATA: BIG
Summary
Name Allen Army Airfield
Region North America
Territory Alaska US.gif
Location Delta Junction, Alaska
Serving Fort Greely
Elevation 393.497 m
1,291 ft
1,291 ft393.497 m
Type medium airport
Coordinates 63° 59' 40.3692", -145° 43' 17.9112"
Runways
Designator Length Width Surface ROPS
1/19 2743 m8,999.344 ft 46 m150.919 ft ASPH-G /
7/25 1426 m4,678.478 ft 50 m164.042 ft ASPH-G /
10/28 1864 m6,115.486 ft 46 m150.919 ft ASPH-G /


METAR
Observation PABI 250653Z AUTO 25008KT 10SM OVC095 09/03 A2969 RMK AO2 SLP065 T00890033 TSNO
Station Delta Junction/Ft Greely, Allen Army Airfield
Date/Time 25 September 2018 06:53:00
Wind direction 250°
Wind speed 08 kts
Lowest cloud amount overcast
Temperature 8.9°C
Dew point 3.3°C
Humidity 67%
QNH hPa
Weather condition n/a

Maps

Terrain

Loading map...

Airport Layout

Loading map...


Accidents & Serious Incidents at or in vicinity of PABI

None on SKYbrary